createdAt,value
2017-05-24T00:01:40.492Z,17.60
2017-05-24T00:04:07.901Z,17.60
2017-05-24T00:06:35.172Z,17.50
2017-05-24T00:09:02.435Z,17.50
2017-05-24T00:11:29.707Z,17.50
2017-05-24T00:13:56.997Z,17.40
2017-05-24T00:16:24.279Z,17.40
2017-05-24T00:18:51.576Z,17.40
2017-05-24T00:21:18.912Z,17.40
2017-05-24T00:23:46.166Z,17.40
2017-05-24T00:26:13.445Z,17.40
2017-05-24T00:28:40.884Z,17.30
2017-05-24T00:31:08.152Z,17.30
2017-05-24T00:33:35.436Z,17.30
2017-05-24T00:36:02.707Z,17.20
2017-05-24T00:38:29.953Z,17.20
2017-05-24T00:40:57.267Z,17.10
2017-05-24T00:43:24.623Z,17.10
2017-05-24T00:45:51.988Z,17.00
2017-05-24T00:48:19.245Z,17.00
2017-05-24T00:50:46.532Z,16.90
2017-05-24T00:53:13.800Z,16.90
2017-05-24T00:55:41.056Z,16.80
2017-05-24T00:58:08.357Z,16.80
2017-05-24T01:00:35.671Z,16.80
2017-05-24T01:03:03.046Z,16.70
2017-05-24T01:05:30.318Z,16.60
2017-05-24T01:07:57.642Z,16.60
2017-05-24T01:10:24.924Z,16.50
2017-05-24T01:12:52.224Z,16.50
2017-05-24T01:15:19.551Z,16.50
2017-05-24T01:17:46.908Z,16.50
2017-05-24T01:20:14.184Z,16.50
2017-05-24T01:22:41.572Z,16.40
2017-05-24T01:25:08.866Z,16.40
2017-05-24T01:27:36.123Z,16.40
2017-05-24T01:30:03.435Z,16.40
2017-05-24T01:32:30.699Z,16.40
2017-05-24T01:34:57.962Z,16.40
2017-05-24T01:37:25.276Z,16.40
2017-05-24T01:39:52.555Z,16.40
2017-05-24T01:42:19.808Z,16.30
2017-05-24T01:44:47.108Z,16.30
2017-05-24T01:47:14.396Z,16.30
2017-05-24T01:49:41.640Z,16.20
2017-05-24T01:52:08.940Z,16.20
2017-05-24T01:54:36.172Z,16.20
2017-05-24T01:57:03.448Z,16.20
2017-05-24T01:59:30.935Z,16.20
2017-05-24T02:01:58.257Z,16.20
2017-05-24T02:04:25.536Z,16.20
2017-05-24T02:06:52.841Z,16.20
2017-05-24T02:09:20.137Z,16.20
2017-05-24T02:11:47.420Z,16.20
2017-05-24T02:14:14.790Z,16.20
2017-05-24T02:16:42.033Z,16.10
2017-05-24T02:19:09.323Z,16.10
2017-05-24T02:21:36.587Z,16.10
2017-05-24T02:24:03.849Z,16.00
2017-05-24T02:26:31.141Z,16.00
2017-05-24T02:28:58.420Z,15.90
2017-05-24T02:31:25.707Z,15.80
2017-05-24T02:33:53.000Z,15.70
2017-05-24T02:36:20.280Z,15.60
2017-05-24T02:38:47.579Z,15.60
2017-05-24T02:41:14.840Z,15.60
2017-05-24T02:43:42.111Z,15.50
2017-05-24T02:46:09.404Z,15.50
2017-05-24T02:48:36.704Z,15.30
2017-05-24T02:51:03.979Z,15.20
2017-05-24T02:53:31.264Z,15.20
2017-05-24T02:55:58.576Z,15.10
2017-05-24T02:58:25.863Z,15.00
2017-05-24T03:00:53.123Z,14.90
2017-05-24T03:03:20.416Z,14.90
2017-05-24T03:05:47.848Z,14.80
2017-05-24T03:08:15.123Z,14.80
2017-05-24T03:10:43.390Z,14.70
2017-05-24T03:13:10.704Z,14.70
2017-05-24T03:15:37.969Z,14.70
2017-05-24T03:18:05.261Z,14.70
2017-05-24T03:20:32.568Z,14.70
2017-05-24T03:22:59.823Z,14.60
2017-05-24T03:25:27.132Z,14.60
2017-05-24T03:27:54.512Z,14.50
2017-05-24T03:30:21.754Z,14.50
2017-05-24T03:32:49.006Z,14.50
2017-05-24T03:35:16.254Z,14.50
2017-05-24T03:37:43.536Z,14.40
2017-05-24T03:40:10.792Z,14.30
2017-05-24T03:42:38.091Z,14.30
2017-05-24T03:45:05.388Z,14.30
2017-05-24T03:47:32.687Z,14.30
2017-05-24T03:50:00.039Z,14.30
2017-05-24T03:52:27.312Z,14.30
2017-05-24T03:54:54.583Z,14.30
2017-05-24T03:57:21.836Z,14.30
2017-05-24T03:59:49.114Z,14.30
2017-05-24T04:02:16.391Z,14.20
2017-05-24T04:04:43.668Z,14.10
2017-05-24T04:07:10.961Z,14.10
2017-05-24T04:09:38.296Z,14.10
2017-05-24T04:12:05.536Z,14.10
2017-05-24T04:14:33.016Z,14.10
2017-05-24T04:17:00.305Z,14.10
2017-05-24T04:19:27.537Z,14.10
2017-05-24T04:21:54.828Z,14.10
2017-05-24T04:24:22.317Z,14.10
2017-05-24T04:26:49.620Z,14.20
2017-05-24T04:29:16.893Z,14.20
2017-05-24T04:31:44.200Z,14.20
2017-05-24T04:34:11.510Z,14.20
2017-05-24T04:36:38.772Z,14.10
2017-05-24T04:39:06.105Z,14.10
2017-05-24T04:41:33.359Z,14.00
2017-05-24T04:44:00.644Z,14.00
2017-05-24T04:46:27.946Z,14.00
2017-05-24T04:48:55.207Z,14.10
2017-05-24T04:51:22.649Z,14.00
2017-05-24T04:53:49.915Z,14.00
2017-05-24T04:56:17.400Z,14.00
2017-05-24T04:58:44.689Z,14.00
2017-05-24T05:01:11.957Z,14.00
2017-05-24T05:03:39.261Z,14.00
2017-05-24T05:06:06.509Z,13.90
2017-05-24T05:08:33.891Z,14.00
2017-05-24T05:11:01.164Z,14.00
2017-05-24T05:13:28.437Z,14.20
2017-05-24T05:15:55.676Z,14.30
2017-05-24T05:18:23.006Z,14.30
2017-05-24T05:20:50.247Z,14.40
2017-05-24T05:23:17.509Z,14.30
2017-05-24T05:25:44.811Z,14.20
2017-05-24T05:28:12.063Z,14.30
2017-05-24T05:30:39.347Z,14.40
2017-05-24T05:33:06.677Z,14.70
2017-05-24T05:35:33.936Z,14.90
2017-05-24T05:38:01.236Z,15.00
2017-05-24T05:40:28.526Z,15.10
2017-05-24T05:42:55.807Z,15.20
2017-05-24T05:45:23.109Z,15.30
2017-05-24T05:47:50.373Z,15.50
2017-05-24T05:50:17.667Z,15.50
2017-05-24T05:52:44.924Z,15.50
2017-05-24T05:55:12.176Z,15.40
2017-05-24T05:57:39.570Z,15.40
2017-05-24T06:00:06.820Z,15.30
2017-05-24T06:02:34.092Z,15.30
2017-05-24T06:05:01.480Z,15.60
2017-05-24T06:07:28.943Z,15.70
2017-05-24T06:09:56.236Z,15.80
2017-05-24T06:12:23.552Z,16.00
2017-05-24T06:14:51.017Z,16.20
2017-05-24T06:17:18.351Z,16.20
2017-05-24T06:19:45.768Z,16.30
2017-05-24T06:22:13.068Z,16.60
2017-05-24T06:24:40.348Z,16.80
2017-05-24T06:27:07.594Z,17.30
2017-05-24T06:29:34.863Z,17.80
2017-05-24T06:32:02.136Z,18.50
2017-05-24T06:34:29.479Z,19.00
2017-05-24T06:36:56.764Z,19.30
2017-05-24T06:39:24.016Z,19.90
2017-05-24T06:41:51.323Z,20.50
2017-05-24T06:44:18.609Z,20.10
2017-05-24T06:46:45.908Z,20.50
2017-05-24T06:49:13.168Z,20.20
2017-05-24T06:51:40.483Z,20.60
2017-05-24T06:54:07.760Z,20.70
2017-05-24T06:56:35.231Z,21.20
2017-05-24T06:59:02.492Z,21.30
2017-05-24T07:01:29.755Z,22.20
2017-05-24T07:03:57.224Z,22.20
2017-05-24T07:06:24.499Z,21.80
2017-05-24T07:08:51.795Z,22.20
2017-05-24T07:11:19.491Z,22.80
2017-05-24T07:13:47.516Z,22.40
2017-05-24T07:16:14.771Z,21.30
2017-05-24T07:18:42.015Z,19.80
2017-05-24T07:21:09.448Z,20.50
2017-05-24T07:23:36.684Z,21.00
2017-05-24T07:26:03.951Z,20.80
2017-05-24T07:28:31.338Z,20.10
2017-05-24T07:30:58.648Z,20.90
2017-05-24T07:33:25.908Z,21.70
2017-05-24T07:35:53.191Z,22.80
2017-05-24T07:38:20.480Z,23.60
2017-05-24T07:40:47.803Z,24.00
2017-05-24T07:43:15.085Z,23.30
2017-05-24T07:45:42.382Z,24.20
2017-05-24T07:48:09.660Z,25.10
2017-05-24T07:50:36.959Z,24.80
2017-05-24T07:53:04.252Z,23.70
2017-05-24T07:55:31.518Z,24.00
2017-05-24T07:57:58.748Z,24.90
2017-05-24T08:00:26.086Z,25.50
2017-05-24T08:02:53.411Z,24.90
2017-05-24T08:05:20.738Z,24.80
2017-05-24T08:07:48.015Z,24.20
2017-05-24T08:10:15.405Z,24.50
2017-05-24T08:12:42.760Z,24.70
2017-05-24T08:15:10.029Z,25.00
2017-05-24T08:17:37.345Z,25.50
2017-05-24T08:20:04.671Z,25.80
2017-05-24T08:22:32.208Z,25.40
2017-05-24T08:24:59.596Z,24.20
2017-05-24T08:27:26.944Z,24.80
2017-05-24T08:29:54.217Z,24.50
2017-05-24T08:32:21.452Z,24.10
2017-05-24T08:34:48.760Z,24.00
2017-05-24T08:37:16.115Z,23.50
2017-05-24T08:39:43.405Z,23.70
2017-05-24T08:42:10.735Z,24.10
2017-05-24T08:44:38.015Z,23.20
2017-05-24T08:47:05.397Z,23.10
2017-05-24T08:49:32.899Z,23.80
2017-05-24T08:52:00.139Z,24.10
2017-05-24T08:54:27.522Z,23.50
2017-05-24T08:56:54.803Z,23.90
2017-05-24T08:59:22.039Z,23.80
2017-05-24T09:01:49.326Z,23.80
2017-05-24T09:04:16.608Z,22.90
2017-05-24T09:06:43.951Z,22.30
2017-05-24T09:09:11.462Z,22.80
2017-05-24T09:11:38.748Z,24.00
2017-05-24T09:14:06.710Z,24.20
2017-05-24T09:16:33.983Z,23.90
2017-05-24T09:19:01.225Z,24.00
2017-05-24T09:21:28.545Z,24.20
2017-05-24T09:23:56.036Z,23.70
2017-05-24T09:26:23.329Z,23.10
2017-05-24T09:28:50.620Z,22.60
2017-05-24T09:31:18.025Z,22.80
2017-05-24T09:33:45.296Z,23.50
2017-05-24T09:36:12.733Z,23.70
2017-05-24T09:38:40.008Z,23.80
2017-05-24T09:41:07.356Z,24.10
2017-05-24T09:43:34.688Z,24.30
2017-05-24T09:46:02.016Z,25.00
2017-05-24T09:48:29.361Z,25.10
2017-05-24T09:50:56.633Z,24.70
2017-05-24T09:53:23.863Z,24.30
2017-05-24T09:55:51.154Z,24.60
2017-05-24T09:58:18.468Z,24.70
2017-05-24T10:00:45.778Z,24.60
2017-05-24T10:03:13.053Z,24.20
2017-05-24T10:05:40.355Z,24.20
2017-05-24T10:08:07.766Z,24.50
2017-05-24T10:10:35.033Z,24.20
2017-05-24T10:13:02.372Z,24.40
2017-05-24T10:15:29.716Z,24.40
2017-05-24T10:17:57.000Z,23.90
2017-05-24T10:20:24.305Z,23.20
2017-05-24T10:22:51.626Z,22.60
2017-05-24T10:25:18.925Z,22.80
2017-05-24T10:27:46.173Z,22.90
2017-05-24T10:30:13.440Z,22.60
2017-05-24T10:32:40.884Z,22.60
2017-05-24T10:35:08.193Z,22.20
2017-05-24T10:37:36.042Z,22.10
2017-05-24T10:40:18.215Z,22.50
2017-05-24T10:42:45.516Z,22.80
2017-05-24T10:45:12.818Z,22.60
2017-05-24T10:47:40.150Z,22.50
2017-05-24T10:50:07.540Z,22.70
2017-05-24T10:52:34.835Z,23.00
2017-05-24T10:55:02.122Z,22.40
2017-05-24T10:57:29.373Z,22.40
2017-05-24T10:59:56.688Z,22.70
2017-05-24T11:02:24.008Z,22.80
2017-05-24T11:04:51.255Z,22.80
2017-05-24T11:07:18.516Z,22.50
2017-05-24T11:09:45.815Z,22.40
2017-05-24T11:12:13.119Z,22.40
2017-05-24T11:14:40.393Z,22.70
2017-05-24T11:17:07.760Z,22.90
2017-05-24T11:19:35.077Z,23.00
2017-05-24T11:22:02.376Z,23.40
2017-05-24T11:24:29.770Z,23.70
2017-05-24T11:26:57.130Z,23.80
2017-05-24T11:29:24.578Z,23.80
2017-05-24T11:31:51.893Z,23.20
2017-05-24T11:34:19.211Z,23.40
2017-05-24T11:36:47.308Z,23.50
2017-05-24T11:39:14.625Z,23.60
2017-05-24T11:41:41.938Z,23.70
2017-05-24T11:44:09.441Z,23.50
2017-05-24T11:46:36.820Z,22.70
2017-05-24T11:49:04.400Z,23.10
2017-05-24T11:51:31.789Z,22.20
2017-05-24T11:53:59.232Z,22.70
2017-05-24T11:56:26.652Z,22.50
2017-05-24T11:58:54.076Z,22.90
2017-05-24T12:01:21.431Z,23.30
2017-05-24T12:03:48.772Z,24.00
2017-05-24T12:06:16.387Z,23.50
2017-05-24T12:08:43.684Z,23.20
2017-05-24T12:11:11.069Z,23.40
2017-05-24T12:13:38.384Z,23.20
2017-05-24T12:16:05.765Z,23.70
2017-05-24T12:18:33.560Z,23.80
2017-05-24T12:21:00.906Z,23.10
2017-05-24T12:23:28.296Z,23.10
2017-05-24T12:25:55.601Z,23.00
2017-05-24T12:28:23.142Z,22.10
2017-05-24T12:30:50.820Z,21.60
2017-05-24T12:33:18.171Z,21.50
2017-05-24T12:35:45.608Z,21.80
2017-05-24T12:38:13.036Z,21.70
2017-05-24T12:40:40.324Z,21.90
2017-05-24T12:43:07.643Z,22.00
2017-05-24T12:45:35.144Z,22.50
2017-05-24T12:48:02.636Z,23.40
2017-05-24T12:50:30.043Z,23.90
2017-05-24T12:52:57.325Z,23.50
2017-05-24T12:55:24.669Z,22.40
2017-05-24T12:57:52.071Z,22.50
2017-05-24T13:00:19.478Z,22.60
2017-05-24T13:02:46.828Z,22.20
2017-05-24T13:05:14.160Z,22.10
2017-05-24T13:07:41.555Z,21.70
2017-05-24T13:10:09.037Z,21.30
2017-05-24T13:12:36.359Z,20.90
2017-05-24T13:15:03.751Z,20.70
2017-05-24T13:20:23.509Z,20.60
2017-05-24T13:22:50.886Z,20.30
2017-05-24T13:25:18.458Z,20.10
2017-05-24T13:27:45.060Z,20.10
2017-05-24T13:30:11.682Z,20.30
2017-05-24T13:32:38.972Z,20.40
2017-05-24T13:35:12.107Z,20.50
2017-05-24T13:37:39.555Z,20.70
2017-05-24T13:40:06.309Z,20.70
2017-05-24T13:42:33.585Z,20.60
2017-05-24T13:45:01.093Z,20.60
2017-05-24T13:47:28.507Z,20.20
2017-05-24T13:49:55.097Z,20.20
2017-05-24T13:52:22.490Z,20.40
2017-05-24T13:54:49.823Z,20.40
2017-05-24T13:57:17.235Z,20.20
2017-05-24T13:59:44.595Z,19.90
2017-05-24T14:02:11.204Z,19.80
2017-05-24T14:04:38.728Z,19.70
2017-05-24T14:07:06.035Z,19.70
2017-05-24T14:09:33.405Z,19.80
2017-05-24T14:11:59.933Z,19.70
2017-05-24T14:14:27.256Z,19.90
2017-05-24T14:16:54.684Z,20.00
2017-05-24T14:19:21.323Z,20.00
2017-05-24T14:21:48.712Z,20.20
2017-05-24T14:24:15.296Z,20.20
2017-05-24T14:26:42.564Z,20.30
2017-05-24T14:29:09.195Z,20.30
2017-05-24T14:31:36.520Z,20.40
2017-05-24T14:34:03.165Z,20.40
2017-05-24T14:36:29.832Z,20.60
2017-05-24T14:38:57.198Z,21.10
2017-05-24T14:41:24.519Z,20.90
2017-05-24T14:43:51.929Z,21.10
2017-05-24T14:46:19.314Z,20.80
2017-05-24T14:48:46.749Z,20.90
2017-05-24T14:51:14.049Z,21.00
2017-05-24T14:53:40.674Z,20.90
2017-05-24T14:56:08.024Z,20.90
2017-05-24T14:58:35.348Z,20.70
2017-05-24T15:01:02.664Z,20.60
2017-05-24T15:03:29.950Z,20.80
2017-05-24T15:05:57.231Z,21.20
2017-05-24T15:08:24.534Z,21.60
2017-05-24T15:10:51.833Z,21.40
2017-05-24T15:13:19.205Z,21.20
2017-05-24T15:15:46.552Z,21.20
2017-05-24T15:18:13.177Z,21.20
2017-05-24T15:20:40.545Z,21.20
2017-05-24T15:23:07.866Z,21.00
2017-05-24T15:25:34.411Z,20.90
2017-05-24T15:28:01.742Z,20.60
2017-05-24T15:30:29.021Z,20.40
2017-05-24T15:32:56.731Z,20.10
2017-05-24T15:35:24.144Z,20.00
2017-05-24T15:37:50.737Z,20.00
2017-05-24T15:40:18.011Z,19.90
2017-05-24T15:42:45.379Z,19.70
2017-05-24T15:45:12.817Z,19.70
2017-05-24T15:47:40.201Z,19.70
2017-05-24T15:50:07.596Z,19.80
2017-05-24T15:52:35.013Z,19.70
2017-05-24T15:55:02.375Z,19.80
2017-05-24T15:57:29.029Z,19.80
2017-05-24T15:59:55.725Z,19.90
2017-05-24T16:02:23.180Z,20.10
2017-05-24T16:04:50.544Z,20.10
2017-05-24T16:07:17.267Z,20.10
2017-05-24T16:09:43.858Z,19.90
2017-05-24T16:12:11.451Z,19.90
2017-05-24T16:14:38.743Z,19.80
2017-05-24T16:17:06.121Z,19.70
2017-05-24T16:19:33.421Z,19.60
2017-05-24T16:22:00.792Z,19.40
2017-05-24T16:24:28.087Z,19.30
2017-05-24T16:26:55.484Z,19.30
2017-05-24T16:29:22.807Z,19.30
2017-05-24T16:31:50.127Z,19.40
2017-05-24T16:34:17.456Z,19.50
2017-05-24T16:36:44.775Z,19.60
2017-05-24T16:39:12.119Z,19.50
2017-05-24T16:41:39.420Z,19.50
2017-05-24T16:44:06.712Z,19.80
2017-05-24T16:46:34.018Z,19.90
2017-05-24T16:49:01.389Z,19.90
2017-05-24T16:51:28.802Z,19.70
2017-05-24T16:53:56.185Z,19.40
2017-05-24T16:56:23.502Z,19.40
2017-05-24T16:58:50.844Z,19.10
2017-05-24T17:01:18.227Z,19.10
2017-05-24T17:03:45.691Z,19.10
2017-05-24T17:06:13.163Z,19.10
2017-05-24T17:08:40.609Z,19.10
2017-05-24T17:11:07.972Z,19.00
2017-05-24T17:13:35.299Z,18.80
2017-05-24T17:16:02.809Z,18.70
2017-05-24T17:18:30.088Z,18.70
2017-05-24T17:20:57.658Z,18.70
2017-05-24T17:23:24.933Z,18.50
2017-05-24T17:25:52.265Z,18.40
2017-05-24T17:28:19.551Z,18.40
2017-05-24T17:30:46.824Z,18.40
2017-05-24T17:33:14.076Z,18.40
2017-05-24T17:35:41.384Z,18.30
2017-05-24T17:38:09.028Z,18.30
2017-05-24T17:40:36.329Z,18.20
2017-05-24T17:43:03.637Z,18.20
2017-05-24T17:45:30.973Z,18.00
2017-05-24T17:47:58.336Z,18.00
2017-05-24T17:50:24.897Z,18.00
2017-05-24T17:52:52.190Z,18.00
2017-05-24T17:55:19.668Z,18.00
2017-05-24T17:57:46.971Z,18.10
2017-05-24T18:00:14.353Z,17.90
2017-05-24T18:02:41.690Z,17.90
2017-05-24T18:05:09.221Z,17.70
2017-05-24T18:07:36.493Z,17.30
2017-05-24T18:10:03.877Z,17.10
2017-05-24T18:12:31.433Z,16.90
2017-05-24T18:14:58.705Z,16.70
2017-05-24T18:17:26.025Z,16.60
2017-05-24T18:19:53.430Z,16.50
2017-05-24T18:22:20.680Z,16.50
2017-05-24T18:24:47.964Z,16.40
2017-05-24T18:27:15.266Z,16.30
2017-05-24T18:29:42.575Z,16.30
2017-05-24T18:32:09.897Z,16.10
2017-05-24T18:34:37.332Z,16.10
2017-05-24T18:37:04.579Z,16.20
2017-05-24T18:39:31.973Z,16.20
2017-05-24T18:41:59.319Z,16.20
2017-05-24T18:44:26.686Z,16.10
2017-05-24T18:46:53.953Z,16.20
2017-05-24T18:49:21.280Z,16.20
2017-05-24T18:51:48.589Z,16.10
2017-05-24T18:54:15.917Z,16.00
2017-05-24T18:56:43.346Z,16.00
2017-05-24T18:59:10.672Z,16.00
2017-05-24T19:01:38.008Z,16.00
2017-05-24T19:04:04.659Z,15.90
2017-05-24T19:06:32.019Z,15.90
2017-05-24T19:08:59.336Z,15.80
2017-05-24T19:11:26.644Z,15.80
2017-05-24T19:13:54.057Z,15.80
2017-05-24T19:16:21.395Z,15.80
2017-05-24T19:18:49.273Z,15.70
2017-05-24T19:21:16.688Z,15.60
2017-05-24T19:23:43.955Z,15.50
2017-05-24T19:26:11.372Z,15.40
2017-05-24T19:28:38.669Z,15.30
2017-05-24T19:31:07.024Z,15.20
2017-05-24T19:33:34.376Z,15.00
2017-05-24T19:36:01.709Z,14.90
2017-05-24T19:38:29.043Z,14.90
2017-05-24T19:40:56.345Z,14.90
2017-05-24T19:43:23.752Z,14.90
2017-05-24T19:45:51.275Z,15.00
2017-05-24T19:48:18.658Z,15.00
2017-05-24T19:50:45.996Z,14.90
2017-05-24T19:53:13.301Z,15.00
2017-05-24T19:55:40.865Z,14.80
2017-05-24T19:58:08.171Z,14.80
2017-05-24T20:00:35.492Z,14.80
2017-05-24T20:03:02.894Z,14.80
2017-05-24T20:05:30.341Z,14.80
2017-05-24T20:07:57.705Z,14.70
2017-05-24T20:10:25.012Z,14.70
2017-05-24T20:12:52.307Z,14.80
2017-05-24T20:15:19.753Z,14.80
2017-05-24T20:17:47.148Z,14.80
2017-05-24T20:20:14.492Z,14.90
2017-05-24T20:22:41.883Z,14.90
2017-05-24T20:25:10.266Z,15.00
2017-05-24T20:27:37.738Z,15.00
2017-05-24T20:30:05.131Z,15.00
2017-05-24T20:32:32.557Z,14.90
2017-05-24T20:35:00.106Z,14.90
2017-05-24T20:37:27.458Z,14.90
2017-05-24T20:39:54.803Z,14.80
2017-05-24T20:42:22.191Z,14.80
2017-05-24T20:44:49.547Z,14.80
2017-05-24T20:47:16.881Z,14.70
2017-05-24T20:49:44.323Z,14.70
2017-05-24T20:52:11.645Z,14.60
2017-05-24T20:54:39.009Z,14.60
2017-05-24T20:57:06.413Z,14.60
2017-05-24T20:59:33.742Z,14.50
2017-05-24T21:02:01.076Z,14.50
2017-05-24T21:04:28.536Z,14.40
2017-05-24T21:06:55.944Z,14.30
2017-05-24T21:09:23.244Z,14.30
2017-05-24T21:11:50.624Z,14.20
2017-05-24T21:14:18.004Z,14.10
2017-05-24T21:16:45.476Z,14.00
2017-05-24T21:19:13.591Z,14.00
2017-05-24T21:21:40.900Z,14.00
2017-05-24T21:24:08.294Z,14.20
2017-05-24T21:26:35.715Z,14.10
2017-05-24T21:29:03.025Z,14.00
2017-05-24T21:31:30.423Z,13.90
2017-05-24T21:33:57.731Z,13.90
2017-05-24T21:36:25.140Z,13.90
2017-05-24T21:38:52.506Z,13.90
2017-05-24T21:41:19.843Z,13.90
2017-05-24T21:43:47.138Z,14.00
2017-05-24T21:46:14.457Z,14.00
2017-05-24T21:48:41.941Z,14.00
2017-05-24T21:51:09.281Z,13.90
2017-05-24T21:53:36.561Z,13.90
2017-05-24T21:56:03.933Z,13.90
2017-05-24T21:58:31.249Z,13.80
2017-05-24T22:00:58.594Z,13.80
2017-05-24T22:03:25.933Z,13.70
2017-05-24T22:05:53.268Z,13.50
2017-05-24T22:08:20.552Z,13.50
2017-05-24T22:10:47.890Z,13.40
2017-05-24T22:13:15.228Z,13.40
2017-05-24T22:15:42.505Z,13.50
2017-05-24T22:18:09.848Z,13.50
2017-05-24T22:20:37.209Z,13.50
2017-05-24T22:23:04.628Z,13.50
2017-05-24T22:25:32.011Z,13.60
2017-05-24T22:27:59.372Z,13.50
2017-05-24T22:30:26.717Z,13.50
2017-05-24T22:32:54.080Z,13.40
2017-05-24T22:35:21.463Z,13.40
2017-05-24T22:37:48.755Z,13.30
2017-05-24T22:40:16.084Z,13.30
2017-05-24T22:42:43.460Z,13.20
2017-05-24T22:45:10.781Z,13.20
2017-05-24T22:47:38.117Z,13.00
2017-05-24T22:50:05.589Z,12.90
2017-05-24T22:52:32.903Z,12.70
2017-05-24T22:55:00.314Z,12.50
2017-05-24T22:57:27.625Z,12.60
2017-05-24T22:59:55.099Z,12.60
2017-05-24T23:02:22.493Z,12.70
2017-05-24T23:04:49.835Z,12.70
2017-05-24T23:07:17.203Z,12.70
2017-05-24T23:09:44.499Z,12.70
2017-05-24T23:12:11.907Z,12.60
2017-05-24T23:14:39.208Z,12.50
2017-05-24T23:17:06.599Z,12.40
2017-05-24T23:19:33.938Z,12.40
2017-05-24T23:22:01.255Z,12.50
2017-05-24T23:24:28.621Z,12.50
2017-05-24T23:26:55.965Z,12.50
2017-05-24T23:29:23.320Z,12.50
2017-05-24T23:31:50.737Z,12.40
2017-05-24T23:34:18.085Z,12.40
2017-05-24T23:36:45.436Z,12.30
2017-05-24T23:39:12.805Z,12.30
2017-05-24T23:41:40.160Z,12.20
2017-05-24T23:44:07.506Z,12.10
2017-05-24T23:46:34.811Z,12.00
2017-05-24T23:49:02.146Z,11.90
2017-05-24T23:51:29.461Z,11.90
2017-05-24T23:59:45.277Z,11.70
